Time;durP1;ratioP1;P1;durP2;ratioP2;P2;SDS_P1;SDS_P2;PMS_P1;PMS_P2;Temp;Humidity;BMP_temperature;BMP_pressure;BME280_temperature;BME280_humidity;BME280_pressure;Samples;Min_cycle;Max_cycle;Signal;HPM_P1;HPM_P2
2022/01/22 00:02:08;;;;;;;9.73;7.90;;;5.00;99.90;;;;;;4946393;29;20654;-73
2022/01/22 00:04:37;;;;;;;9.13;8.18;;;5.00;99.90;;;;;;4938287;29;20203;-73
2022/01/22 00:07:06;;;;;;;8.15;7.00;;;5.00;99.90;;;;;;4940661;29;20633;-72
2022/01/22 00:09:52;;;;;;;9.10;8.20;;;5.00;99.90;;;;;;4945562;29;20231;-72
2022/01/22 00:12:40;;;;;;;14.82;8.63;;;5.10;99.90;;;;;;4952918;28;20286;-72
2022/01/22 00:15:11;;;;;;;8.95;7.90;;;5.10;99.90;;;;;;4954831;29;20309;-72
2022/01/22 00:17:39;;;;;;;7.95;6.80;;;5.10;99.90;;;;;;4951797;29;20646;-72
2022/01/22 00:20:08;;;;;;;11.57;7.00;;;5.10;99.90;;;;;;4949467;29;20661;-71
2022/01/22 00:22:37;;;;;;;10.70;7.43;;;5.10;99.90;;;;;;4948739;29;20238;-72
2022/01/22 00:25:08;;;;;;;7.45;6.10;;;5.00;99.90;;;;;;4954283;29;20239;-72
2022/01/22 00:27:38;;;;;;;11.05;6.47;;;5.00;99.90;;;;;;4954790;29;20210;-72
2022/01/22 00:30:08;;;;;;;7.32;5.03;;;5.00;99.90;;;;;;4942163;29;20318;-72
2022/01/22 00:32:36;;;;;;;11.45;5.75;;;5.00;99.90;;;;;;4954157;29;20679;-72
2022/01/22 00:35:06;;;;;;;6.93;4.47;;;5.00;99.90;;;;;;4951626;28;20303;-72
2022/01/22 00:37:36;;;;;;;12.40;5.18;;;5.10;99.90;;;;;;4954650;28;20648;-72
2022/01/22 00:40:09;;;;;;;10.63;5.07;;;5.10;99.90;;;;;;4953916;28;20281;-72
2022/01/22 00:42:38;;;;;;;7.20;4.35;;;5.10;99.90;;;;;;4954251;29;20630;-72
2022/01/22 00:45:07;;;;;;;6.40;4.22;;;5.10;99.90;;;;;;4953581;29;20291;-72
2022/01/22 00:47:35;;;;;;;7.53;3.75;;;5.00;99.90;;;;;;4952339;29;20230;-71
2022/01/22 00:50:04;;;;;;;7.85;4.43;;;5.00;99.90;;;;;;4946153;29;20244;-71
2022/01/22 00:52:32;;;;;;;5.15;3.72;;;5.00;99.90;;;;;;4954084;28;20203;-72
2022/01/22 00:55:00;;;;;;;9.60;4.53;;;5.00;99.90;;;;;;4954098;29;20736;-71
2022/01/22 00:57:29;;;;;;;7.38;3.90;;;5.00;99.90;;;;;;4954286;28;20278;-71
2022/01/22 00:59:57;;;;;;;11.10;4.60;;;5.00;99.90;;;;;;4954089;29;20258;-72
2022/01/22 01:02:25;;;;;;;9.50;4.65;;;5.00;99.90;;;;;;4953980;29;20215;-71
2022/01/22 01:04:53;;;;;;;8.27;5.10;;;5.00;99.90;;;;;;4954161;29;20298;-71
2022/01/22 01:07:21;;;;;;;6.45;4.13;;;4.90;99.90;;;;;;4953919;28;20327;-72
2022/01/22 01:09:49;;;;;;;8.18;4.88;;;4.90;99.90;;;;;;4952326;28;20326;-72
2022/01/22 01:12:17;;;;;;;8.70;5.60;;;4.90;99.90;;;;;;4953547;29;20235;-71
2022/01/22 01:14:48;;;;;;;5.82;5.22;;;4.90;99.90;;;;;;4953798;29;20238;-71
2022/01/22 01:17:44;;;;;;;15.00;5.07;;;5.00;99.90;;;;;;4953610;29;20696;-72
2022/01/22 01:33:59;;;;;;;8.70;6.20;;;4.90;99.90;;;;;;4953678;29;20239;-71
2022/01/22 01:36:28;;;;;;;8.38;5.30;;;4.90;99.90;;;;;;4953660;29;20250;-72
2022/01/22 01:39:00;;;;;;;8.35;5.85;;;4.90;99.90;;;;;;4953360;29;20290;-71
2022/01/22 01:41:35;;;;;;;9.95;5.57;;;4.80;99.90;;;;;;4920783;29;20246;-71
2022/01/22 01:44:03;;;;;;;9.20;5.45;;;4.90;99.90;;;;;;4925257;29;20256;-71
2022/01/22 01:46:33;;;;;;;8.23;5.22;;;4.80;99.90;;;;;;4929489;29;20365;-72
2022/01/22 01:49:03;;;;;;;7.95;5.40;;;4.90;99.90;;;;;;4924424;29;20204;-71
2022/01/22 01:51:33;;;;;;;8.45;5.93;;;4.80;99.90;;;;;;4918672;29;20212;-71
2022/01/22 01:54:06;;;;;;;9.65;6.25;;;4.90;99.90;;;;;;4929273;29;20232;-71
2022/01/22 01:59:20;;;;;;;5.60;5.10;;;4.80;99.90;;;;;;4933868;29;20708;-71
2022/01/22 02:01:49;;;;;;;7.65;5.00;;;4.80;99.90;;;;;;4934135;29;20831;-72
2022/01/22 02:04:17;;;;;;;10.85;5.70;;;4.90;99.90;;;;;;4933923;29;20208;-72
2022/01/22 02:06:45;;;;;;;8.60;5.30;;;4.80;99.90;;;;;;4934274;29;20239;-72
2022/01/22 02:09:13;;;;;;;7.28;4.63;;;4.80;99.90;;;;;;4933957;29;20259;-71
2022/01/22 02:11:42;;;;;;;8.27;4.68;;;4.80;99.90;;;;;;4933900;29;20673;-71
2022/01/22 02:23:30;;;;;;;6.75;4.85;;;4.80;99.90;;;;;;4933714;29;20238;-71
2022/01/22 02:25:17;;;;;;;7.55;3.83;;;4.70;99.90;;;;;;4936067;29;20681;-73
2022/01/22 02:27:45;;;;;;;8.70;4.57;;;4.80;99.90;;;;;;4937713;29;20307;-71
2022/01/22 02:30:19;;;;;;;7.35;4.70;;;4.80;99.90;;;;;;4937440;29;20310;-72
2022/01/22 02:33:07;;;;;;;6.03;4.55;;;4.80;99.90;;;;;;4925125;29;20203;-72
2022/01/22 02:35:47;;;;;;;5.10;4.18;;;4.70;99.90;;;;;;4937660;29;20699;-72
2022/01/22 02:38:21;;;;;;;4.68;4.28;;;4.70;99.90;;;;;;4937701;29;20761;-72
2022/01/22 02:40:49;;;;;;;10.98;3.97;;;4.70;99.90;;;;;;4951899;29;20310;-72
2022/01/22 02:43:19;;;;;;;8.38;4.55;;;4.70;99.90;;;;;;4956387;28;20260;-72
2022/01/22 02:45:48;;;;;;;5.13;4.15;;;4.70;99.90;;;;;;4953932;28;20273;-72
2022/01/22 02:48:16;;;;;;;5.15;4.00;;;4.70;99.90;;;;;;4952294;28;20234;-71
2022/01/22 02:50:44;;;;;;;5.57;4.22;;;4.70;99.90;;;;;;4950406;29;20313;-72
2022/01/22 02:53:14;;;;;;;10.02;4.85;;;4.70;99.90;;;;;;4950880;29;20247;-72
2022/01/22 02:55:45;;;;;;;5.90;4.00;;;4.70;99.90;;;;;;4956033;28;20267;-72
2022/01/22 02:58:13;;;;;;;8.68;4.97;;;4.70;99.90;;;;;;4943968;29;20203;-71
2022/01/22 03:00:41;;;;;;;7.32;4.30;;;4.70;99.90;;;;;;4943980;29;20771;-72
2022/01/22 03:03:09;;;;;;;5.05;4.10;;;4.70;99.90;;;;;;4943973;28;20640;-72
2022/01/22 03:05:37;;;;;;;4.35;3.95;;;4.70;99.90;;;;;;4944382;28;20199;-72
2022/01/22 03:08:08;;;;;;;8.55;4.35;;;4.70;99.90;;;;;;4944260;29;20231;-72
2022/01/22 03:10:38;;;;;;;4.40;3.85;;;4.70;99.90;;;;;;4945059;29;20231;-73
2022/01/22 03:15:59;;;;;;;3.40;3.10;;;4.70;99.90;;;;;;4955952;29;20250;-72
2022/01/22 03:18:41;;;;;;;5.03;3.75;;;4.70;99.90;;;;;;4956136;29;20640;-70
2022/01/22 03:21:27;;;;;;;5.60;3.00;;;4.70;99.90;;;;;;4944617;29;20239;-72
2022/01/22 03:29:36;;;;;;;5.35;2.97;;;4.70;99.90;;;;;;4956297;29;20227;-72
2022/01/22 03:32:06;;;;;;;8.70;3.58;;;4.70;99.90;;;;;;4955679;28;20265;-71
2022/01/22 03:34:41;;;;;;;3.13;2.83;;;4.70;99.90;;;;;;4956071;28;20211;-72
2022/01/22 03:37:09;;;;;;;3.30;3.00;;;4.70;99.90;;;;;;4955782;28;20676;-72
2022/01/22 03:39:37;;;;;;;4.57;2.90;;;4.70;99.90;;;;;;4955355;29;20329;-72
2022/01/22 03:42:06;;;;;;;3.60;3.30;;;4.70;99.90;;;;;;4955399;29;20639;-72
2022/01/22 03:44:35;;;;;;;3.40;2.90;;;4.70;99.90;;;;;;4954188;28;20231;-72
2022/01/22 03:47:04;;;;;;;4.10;3.25;;;4.70;99.90;;;;;;4955749;29;20271;-73
2022/01/22 03:49:33;;;;;;;5.57;2.92;;;4.70;99.90;;;;;;4954108;29;20699;-72
2022/01/22 03:52:01;;;;;;;3.40;3.10;;;4.70;99.90;;;;;;4949011;29;20748;-72
2022/01/22 03:54:29;;;;;;;5.22;3.03;;;4.70;99.90;;;;;;4948148;29;20211;-71
2022/01/22 03:56:57;;;;;;;4.07;3.45;;;4.70;99.90;;;;;;4955318;29;20309;-73
2022/01/22 03:59:25;;;;;;;5.90;3.00;;;4.70;99.90;;;;;;4955007;29;20775;-72
2022/01/22 04:04:54;;;;;;;2.75;2.17;;;4.80;99.90;;;;;;4955164;28;20204;-71
2022/01/22 04:10:10;;;;;;;5.75;3.40;;;4.80;99.90;;;;;;4955370;28;20782;-72
2022/01/22 04:12:46;;;;;;;4.30;3.50;;;4.70;99.90;;;;;;4954963;29;20647;-73
2022/01/22 04:15:19;;;;;;;3.35;2.97;;;4.70;99.90;;;;;;4955230;29;20226;-72
2022/01/22 04:26:13;;;;;;;3.60;3.30;;;4.70;99.90;;;;;;4954921;29;20306;-72
2022/01/22 04:28:42;;;;;;;3.72;2.33;;;4.70;99.90;;;;;;4954970;29;20735;-73
2022/01/22 04:31:09;;;;;;;3.13;2.83;;;4.80;99.90;;;;;;4954549;28;20689;-72
2022/01/22 04:33:39;;;;;;;3.10;2.75;;;4.80;99.90;;;;;;4954308;29;20569;-72
2022/01/22 04:36:07;;;;;;;3.63;2.70;;;4.80;99.90;;;;;;4954456;29;20274;-72
2022/01/22 04:38:35;;;;;;;3.42;2.60;;;4.80;99.90;;;;;;4954531;29;20234;-73
2022/01/22 04:41:04;;;;;;;2.80;2.60;;;4.90;99.90;;;;;;4954261;29;20686;-73
2022/01/22 04:43:34;;;;;;;2.50;2.30;;;4.90;99.90;;;;;;4954198;28;21256;-72
2022/01/22 04:46:13;;;;;;;3.03;2.67;;;4.80;99.90;;;;;;4953252;28;20203;-72
2022/01/22 04:48:51;;;;;;;3.17;2.97;;;4.80;99.90;;;;;;4954339;29;20253;-73
2022/01/22 04:57:02;;;;;;;2.30;2.10;;;4.80;99.90;;;;;;4913217;29;20255;-72
2022/01/22 04:59:30;;;;;;;4.03;2.95;;;4.80;99.90;;;;;;4940527;28;20274;-73
2022/01/22 05:01:58;;;;;;;3.22;2.38;;;4.80;99.90;;;;;;4954005;29;20234;-69
2022/01/22 05:04:28;;;;;;;3.15;2.95;;;4.80;99.90;;;;;;4954234;29;20207;-73
2022/01/22 05:06:56;;;;;;;3.38;2.45;;;4.80;99.90;;;;;;4953881;28;20294;-73
2022/01/22 05:09:24;;;;;;;3.45;3.15;;;4.80;99.90;;;;;;4952669;29;20267;-73
2022/01/22 05:11:52;;;;;;;4.72;2.85;;;4.80;99.90;;;;;;4954091;29;20321;-73
2022/01/22 05:14:19;;;;;;;2.95;2.45;;;4.80;99.90;;;;;;4954091;29;20306;-72
2022/01/22 05:16:47;;;;;;;2.90;2.70;;;4.80;99.90;;;;;;4953776;29;20753;-72
2022/01/22 05:19:21;;;;;;;2.80;2.60;;;4.80;99.90;;;;;;4941633;29;20263;-72
2022/01/22 05:21:53;;;;;;;3.38;2.90;;;4.80;99.90;;;;;;4945347;29;20237;-72
2022/01/22 05:24:26;;;;;;;3.92;2.78;;;4.80;99.90;;;;;;4948134;29;20744;-71
2022/01/22 05:32:54;;;;;;;3.40;3.10;;;4.80;99.90;;;;;;5056197;28;20207;-72
2022/01/22 05:38:08;;;;;;;4.38;3.35;;;4.80;99.90;;;;;;5080936;22;20232;-63
2022/01/22 05:40:36;;;;;;;3.63;3.05;;;4.80;99.90;;;;;;5064140;28;20676;-61
2022/01/22 05:43:05;;;;;;;4.60;3.33;;;4.80;99.90;;;;;;5062048;28;20222;-63
2022/01/22 05:45:34;;;;;;;5.53;3.15;;;4.80;99.90;;;;;;5067589;28;20617;-63
2022/01/22 05:48:02;;;;;;;3.67;3.22;;;4.80;99.90;;;;;;5058942;28;20222;-62
2022/01/22 05:50:33;;;;;;;5.38;3.40;;;4.80;99.90;;;;;;5048102;28;20210;-63
2022/01/22 05:53:06;;;;;;;4.05;3.63;;;4.80;99.90;;;;;;5047994;28;20642;-63
2022/01/22 05:59:35;;;;;;;3.60;3.13;;;4.80;99.90;;;;;;5048061;28;20278;-63
2022/01/22 06:01:17;;;;;;;3.42;3.15;;;4.90;99.90;;;;;;5048065;28;20266;-63
2022/01/22 06:03:46;;;;;;;4.80;4.32;;;4.90;99.90;;;;;;5047658;28;20200;-63
2022/01/22 06:06:15;;;;;;;3.15;2.88;;;4.90;99.90;;;;;;5053857;28;20625;-63
2022/01/22 06:08:47;;;;;;;3.67;3.33;;;4.90;99.90;;;;;;5052637;28;20228;-63
2022/01/22 06:11:21;;;;;;;3.92;3.58;;;4.90;99.90;;;;;;5048055;28;20835;-63
2022/01/22 06:13:50;;;;;;;3.42;3.22;;;5.00;99.90;;;;;;5047757;28;20211;-63
2022/01/22 06:16:21;;;;;;;5.93;3.47;;;5.00;99.90;;;;;;5047823;28;20295;-63
2022/01/22 06:18:49;;;;;;;3.67;3.47;;;5.00;99.90;;;;;;5047597;28;20234;-63
2022/01/22 06:21:17;;;;;;;4.32;3.65;;;5.00;99.90;;;;;;5047672;28;20673;-63
2022/01/22 06:23:45;;;;;;;6.15;4.25;;;5.10;99.90;;;;;;5047392;28;20291;-63
2022/01/22 06:26:14;;;;;;;4.72;4.15;;;5.10;99.90;;;;;;5047564;28;20669;-63
2022/01/22 06:28:42;;;;;;;4.43;4.13;;;5.00;99.90;;;;;;5047432;28;20323;-63
2022/01/22 06:31:11;;;;;;;4.47;4.15;;;5.10;99.90;;;;;;5047433;28;20288;-63
2022/01/22 06:33:40;;;;;;;5.10;4.70;;;5.00;99.90;;;;;;5047085;28;20249;-62
2022/01/22 06:36:08;;;;;;;5.80;5.38;;;5.00;99.90;;;;;;5047442;28;20230;-62
2022/01/22 06:38:36;;;;;;;5.72;5.28;;;5.00;99.90;;;;;;5047067;28;20259;-62
2022/01/22 06:43:49;;;;;;;6.57;5.97;;;4.90;99.90;;;;;;5033753;28;20708;-62
2022/01/22 06:46:17;;;;;;;6.43;5.97;;;4.90;99.90;;;;;;5033991;28;20204;-62
2022/01/22 06:48:46;;;;;;;6.50;6.05;;;5.00;99.90;;;;;;5033797;28;20220;-62
2022/01/22 06:51:14;;;;;;;5.90;5.50;;;4.90;99.90;;;;;;5033451;28;20204;-61
2022/01/22 06:53:42;;;;;;;6.00;5.53;;;4.90;99.90;;;;;;5033584;28;20635;-61
2022/01/22 06:56:18;;;;;;;5.60;5.20;;;4.90;99.90;;;;;;5033483;28;20279;-62
2022/01/22 06:58:46;;;;;;;6.72;6.32;;;5.00;99.90;;;;;;5033880;28;20323;-62
2022/01/22 07:01:14;;;;;;;6.15;5.75;;;5.00;99.90;;;;;;5033815;28;20307;-61
2022/01/22 07:03:43;;;;;;;6.03;5.57;;;5.00;99.90;;;;;;5033592;28;20208;-63
2022/01/22 07:06:12;;;;;;;6.78;6.20;;;5.00;99.90;;;;;;5033288;28;20629;-63
2022/01/22 07:08:40;;;;;;;6.90;6.20;;;5.10;99.90;;;;;;5033403;28;20311;-62
2022/01/22 07:11:07;;;;;;;6.53;6.03;;;5.10;99.90;;;;;;5035088;28;20204;-62
2022/01/22 07:13:35;;;;;;;6.28;5.78;;;5.00;99.90;;;;;;5036113;28;20320;-63
2022/01/22 07:16:03;;;;;;;6.13;5.60;;;5.00;99.90;;;;;;5033459;28;20304;-62
2022/01/22 07:18:31;;;;;;;6.78;6.10;;;5.00;99.90;;;;;;5033136;28;20252;-65
2022/01/22 07:21:03;;;;;;;5.55;5.13;;;5.00;99.90;;;;;;5028631;28;20304;-62
2022/01/22 07:23:56;;;;;;;7.40;6.00;;;5.00;99.90;;;;;;5026351;28;20271;-63
2022/01/22 07:26:24;;;;;;;6.40;5.68;;;5.00;99.90;;;;;;5022515;28;20291;-63
2022/01/22 07:28:52;;;;;;;5.00;4.60;;;5.10;99.90;;;;;;5027855;28;20307;-63
2022/01/22 07:31:23;;;;;;;5.60;5.20;;;5.10;99.90;;;;;;5028040;28;20855;-63
2022/01/22 07:33:51;;;;;;;6.05;5.43;;;5.20;99.90;;;;;;5027358;28;20655;-63
2022/01/22 07:36:19;;;;;;;4.70;4.40;;;5.20;99.90;;;;;;5027737;28;20201;-62
2022/01/22 07:38:48;;;;;;;5.13;4.63;;;5.20;99.90;;;;;;5027586;28;21178;-63
2022/01/22 07:41:17;;;;;;;4.05;3.75;;;5.30;99.90;;;;;;5027756;28;20643;-62
2022/01/22 07:43:45;;;;;;;4.63;4.22;;;5.30;99.90;;;;;;5027641;28;20295;-62
2022/01/22 07:46:13;;;;;;;3.85;3.55;;;5.30;99.90;;;;;;5027533;28;20205;-63
2022/01/22 07:48:41;;;;;;;4.30;4.00;;;5.30;99.90;;;;;;5027497;28;20319;-62
2022/01/22 07:51:09;;;;;;;3.58;3.38;;;5.20;99.90;;;;;;5024959;28;20653;-62
2022/01/22 07:53:37;;;;;;;4.00;3.70;;;5.30;99.90;;;;;;5025327;28;20209;-62
2022/01/22 07:56:06;;;;;;;4.05;3.75;;;5.20;99.90;;;;;;5027127;28;20307;-61
2022/01/22 07:58:34;;;;;;;4.63;4.30;;;5.30;99.90;;;;;;5027497;28;20319;-63
2022/01/22 08:01:02;;;;;;;4.45;4.15;;;5.30;99.90;;;;;;5027267;28;20291;-62
2022/01/22 08:03:30;;;;;;;4.03;3.72;;;5.30;99.90;;;;;;5027147;28;20315;-63
2022/01/22 08:05:58;;;;;;;4.50;4.10;;;5.30;99.90;;;;;;5026963;28;20208;-63
2022/01/22 08:08:26;;;;;;;5.40;5.00;;;5.40;99.90;;;;;;5026889;28;20311;-62
2022/01/22 08:10:54;;;;;;;4.03;3.83;;;5.30;99.90;;;;;;5027010;28;20264;-62
2022/01/22 08:13:23;;;;;;;4.97;4.68;;;5.40;99.90;;;;;;5026631;28;20728;-61
2022/01/22 08:15:51;;;;;;;4.70;4.40;;;5.40;99.90;;;;;;5026895;28;20291;-62
2022/01/22 08:18:19;;;;;;;4.05;3.75;;;5.50;99.90;;;;;;5034569;28;20225;-62
2022/01/22 08:20:47;;;;;;;3.75;3.55;;;5.50;99.90;;;;;;5024607;28;20292;-62
2022/01/22 08:23:14;;;;;;;9.32;8.02;;;5.60;99.90;;;;;;5026486;28;20657;-62
2022/01/22 08:25:46;;;;;;;7.75;7.05;;;5.60;99.90;;;;;;5026684;28;20208;-62
2022/01/22 08:31:05;;;;;;;4.65;4.30;;;5.70;99.90;;;;;;5027027;28;20335;-62
2022/01/22 08:36:15;;;;;;;4.65;4.35;;;5.70;99.90;;;;;;5025168;28;20227;-62
2022/01/22 08:38:43;;;;;;;4.32;3.92;;;5.70;99.90;;;;;;5020107;28;20748;-62
2022/01/22 08:41:11;;;;;;;4.30;3.90;;;5.70;99.90;;;;;;5026445;28;20696;-63
2022/01/22 08:43:39;;;;;;;4.53;4.22;;;5.70;99.90;;;;;;5026317;28;20200;-62
2022/01/22 08:46:08;;;;;;;5.10;4.80;;;5.70;99.90;;;;;;5025540;28;20231;-64
2022/01/22 08:48:36;;;;;;;4.90;4.50;;;5.70;99.90;;;;;;5026396;28;20224;-62
2022/01/22 08:51:06;;;;;;;4.90;4.60;;;5.70;99.90;;;;;;5026205;28;20727;-62
2022/01/22 08:53:46;;;;;;;6.07;5.63;;;5.70;99.90;;;;;;5025745;28;20228;-63
2022/01/22 08:56:15;;;;;;;5.20;4.80;;;5.70;99.90;;;;;;5026284;28;20295;-62
2022/01/22 08:58:43;;;;;;;4.90;4.60;;;5.70;99.90;;;;;;5026293;28;20256;-63
2022/01/22 09:01:12;;;;;;;5.40;5.00;;;5.70;99.90;;;;;;5025952;28;20189;-63
2022/01/22 09:03:40;;;;;;;6.03;5.43;;;5.80;99.90;;;;;;5025718;28;20282;-62
2022/01/22 09:06:11;;;;;;;6.05;5.65;;;5.70;99.90;;;;;;5026241;28;20242;-62
2022/01/22 09:08:39;;;;;;;6.25;5.80;;;5.70;99.90;;;;;;5021226;28;20343;-62
2022/01/22 09:11:07;;;;;;;6.25;5.78;;;5.70;99.90;;;;;;5025918;28;20311;-64
2022/01/22 09:13:35;;;;;;;7.50;6.90;;;5.70;99.90;;;;;;5020878;28;20323;-62
2022/01/22 09:16:04;;;;;;;6.88;6.38;;;5.70;99.90;;;;;;5025871;28;20638;-62
2022/01/22 09:18:33;;;;;;;6.55;6.15;;;5.70;99.90;;;;;;5025760;28;20232;-61
2022/01/22 09:21:06;;;;;;;7.15;6.47;;;5.70;99.90;;;;;;5025867;28;20197;-62
2022/01/22 09:23:35;;;;;;;5.45;5.10;;;5.80;99.90;;;;;;5028728;28;20211;-62
2022/01/22 09:26:03;;;;;;;6.78;6.18;;;5.80;99.90;;;;;;5030260;28;20693;-61
2022/01/22 09:28:32;;;;;;;5.93;5.47;;;5.90;99.90;;;;;;5025838;28;20319;-62
2022/01/22 09:31:00;;;;;;;6.57;6.07;;;6.00;99.90;;;;;;5022516;28;20312;-61
2022/01/22 09:33:28;;;;;;;6.60;6.00;;;6.00;99.90;;;;;;5025675;28;20308;-62
2022/01/22 09:35:58;;;;;;;6.55;6.05;;;6.00;99.90;;;;;;5025684;28;20247;-62
2022/01/22 09:38:25;;;;;;;5.50;5.15;;;6.00;99.90;;;;;;5025121;28;20323;-62
2022/01/22 09:40:53;;;;;;;6.88;6.28;;;6.00;99.90;;;;;;5024079;28;20339;-63
2022/01/22 09:43:22;;;;;;;7.35;6.78;;;6.10;99.90;;;;;;5024655;28;20283;-62
2022/01/22 09:45:51;;;;;;;8.93;8.10;;;6.10;99.90;;;;;;5025590;28;20204;-59
2022/01/22 09:48:18;;;;;;;7.45;6.85;;;6.00;99.90;;;;;;5025656;28;20240;-62
2022/01/22 09:50:46;;;;;;;8.75;7.93;;;6.00;99.90;;;;;;5025287;28;20788;-62
2022/01/22 09:53:16;;;;;;;7.80;7.20;;;6.10;99.90;;;;;;5024886;28;20280;-61
2022/01/22 09:55:43;;;;;;;7.60;7.10;;;6.20;99.90;;;;;;5025234;28;20283;-62
2022/01/22 09:58:11;;;;;;;8.50;7.80;;;6.20;99.90;;;;;;5025306;28;20724;-62
2022/01/22 10:00:39;;;;;;;8.93;8.07;;;6.20;99.90;;;;;;5025648;28;20744;-61
2022/01/22 10:03:17;;;;;;;8.63;7.88;;;6.30;99.90;;;;;;5025579;28;20208;-61
2022/01/22 10:05:45;;;;;;;9.00;8.10;;;6.20;99.90;;;;;;5025137;28;20799;-62
2022/01/22 10:08:28;;;;;;;8.38;7.70;;;6.30;99.90;;;;;;5023180;28;20263;-63
2022/01/22 10:10:58;;;;;;;8.13;7.38;;;6.30;99.90;;;;;;5025211;28;20712;-62
2022/01/22 10:13:39;;;;;;;8.73;7.97;;;6.30;99.90;;;;;;5025364;28;20817;-62
2022/01/22 10:16:16;;;;;;;8.30;7.50;;;6.30;99.90;;;;;;5027893;28;20697;-62
2022/01/22 10:18:44;;;;;;;7.95;7.35;;;6.20;99.90;;;;;;5029175;28;20239;-62
2022/01/22 10:21:13;;;;;;;7.85;7.25;;;6.20;99.90;;;;;;5028911;28;20764;-62
2022/01/22 10:23:43;;;;;;;7.80;7.10;;;6.20;99.90;;;;;;5025558;28;20677;-62
2022/01/22 10:26:14;;;;;;;8.02;7.32;;;6.20;99.90;;;;;;5022701;28;20634;-61
2022/01/22 10:28:47;;;;;;;7.18;6.57;;;6.30;99.90;;;;;;5029753;28;20228;-63
2022/01/22 10:31:24;;;;;;;6.65;6.15;;;6.30;99.90;;;;;;5025600;28;20748;-62
2022/01/22 10:34:10;;;;;;;6.47;6.00;;;6.30;99.90;;;;;;5028943;28;20212;-63
2022/01/22 10:36:39;;;;;;;7.57;6.95;;;6.40;99.90;;;;;;5027373;28;21116;-62
2022/01/22 10:39:11;;;;;;;7.30;6.70;;;6.40;99.90;;;;;;5027193;28;20279;-62
2022/01/22 10:41:41;;;;;;;7.05;6.45;;;6.50;99.90;;;;;;5028215;28;20300;-61
2022/01/22 10:44:14;;;;;;;7.28;6.70;;;6.50;99.90;;;;;;5028662;28;20197;-62
2022/01/22 10:46:45;;;;;;;7.15;6.45;;;6.60;99.90;;;;;;5028969;28;20205;-62
2022/01/22 10:49:16;;;;;;;6.93;6.32;;;6.50;99.90;;;;;;5028510;28;20213;-62
2022/01/22 10:51:47;;;;;;;9.20;6.57;;;6.50;99.90;;;;;;5027894;28;20240;-61
2022/01/22 10:54:17;;;;;;;7.50;6.80;;;6.40;99.90;;;;;;5028014;28;20200;-61
2022/01/22 10:56:46;;;;;;;7.55;6.95;;;6.40;99.90;;;;;;5028375;28;20232;-63
2022/01/22 10:59:17;;;;;;;7.78;6.70;;;6.50;99.90;;;;;;5028154;28;20228;-63
2022/01/22 11:01:54;;;;;;;7.45;6.85;;;6.60;99.90;;;;;;5028323;28;20288;-62
2022/01/22 11:04:24;;;;;;;6.30;5.80;;;6.60;99.90;;;;;;5026090;28;20211;-63
2022/01/22 11:06:54;;;;;;;5.93;5.50;;;6.70;99.90;;;;;;5027933;28;20200;-64
2022/01/22 11:09:44;;;;;;;6.93;6.32;;;6.70;99.90;;;;;;5027869;28;20560;-62
2022/01/22 11:12:12;;;;;;;9.00;6.80;;;6.70;99.90;;;;;;5027994;28;20232;-63
2022/01/22 11:14:41;;;;;;;11.68;10.15;;;6.80;99.90;;;;;;5032433;28;20388;-64
2022/01/22 11:17:09;;;;;;;8.63;7.93;;;6.80;99.90;;;;;;5031917;28;20303;-63
2022/01/22 11:19:38;;;;;;;5.93;5.47;;;6.80;99.90;;;;;;5033534;28;20231;-63
2022/01/22 11:22:08;;;;;;;5.57;5.07;;;6.80;99.90;;;;;;5032515;28;20300;-63
2022/01/22 11:24:41;;;;;;;4.85;4.55;;;6.80;99.90;;;;;;5031989;28;20487;-63
2022/01/22 11:27:12;;;;;;;5.20;4.80;;;6.80;99.90;;;;;;5032857;28;20300;-63
2022/01/22 11:29:46;;;;;;;5.28;4.88;;;6.80;99.90;;;;;;5033353;28;20684;-63
2022/01/22 11:32:17;;;;;;;4.85;4.45;;;6.80;99.90;;;;;;5032920;28;20232;-64
2022/01/22 11:34:47;;;;;;;5.03;4.63;;;6.80;99.90;;;;;;5032982;28;20291;-64
2022/01/22 11:37:19;;;;;;;5.07;4.68;;;6.90;99.90;;;;;;5032293;28;20227;-64
2022/01/22 11:40:07;;;;;;;5.53;5.05;;;6.80;99.90;;;;;;5041330;22;20264;-65
2022/01/22 11:45:36;;;;;;;5.88;5.03;;;6.80;99.90;;;;;;5095306;27;20785;-66
2022/01/22 11:48:12;;;;;;;3.92;3.70;;;6.90;99.90;;;;;;5088281;28;20202;-66
2022/01/22 11:50:40;;;;;;;4.88;4.45;;;6.90;99.90;;;;;;5082332;28;20301;-66
2022/01/22 11:53:26;;;;;;;3.63;3.33;;;6.90;99.90;;;;;;5087874;28;20293;-66
2022/01/22 11:56:13;;;;;;;4.10;3.80;;;7.00;99.90;;;;;;5088712;28;20294;-66
2022/01/22 11:59:24;;;;;;;3.58;3.28;;;7.10;99.90;;;;;;5088541;28;20593;-66
2022/01/22 12:02:00;;;;;;;3.40;3.20;;;7.10;99.90;;;;;;5071692;28;20234;-66
2022/01/22 12:04:46;;;;;;;6.57;5.97;;;7.00;99.90;;;;;;5088559;28;20241;-66
2022/01/22 12:07:16;;;;;;;4.32;3.97;;;6.90;99.90;;;;;;5088281;28;20248;-66
2022/01/22 12:09:53;;;;;;;4.60;4.20;;;6.90;99.90;;;;;;5088337;28;20226;-66
2022/01/22 12:15:10;;;;;;;3.83;3.53;;;6.90;99.90;;;;;;5088360;28;20567;-66
2022/01/22 12:18:11;;;;;;;3.70;3.42;;;6.90;99.90;;;;;;5087981;28;20233;-66
2022/01/22 12:23:53;;;;;;;6.03;5.45;;;6.90;99.90;;;;;;5084567;28;20297;-66
2022/01/22 12:26:45;;;;;;;4.65;4.25;;;6.80;99.90;;;;;;5088419;28;20542;-66
2022/01/22 12:29:41;;;;;;;4.90;4.50;;;6.80;99.90;;;;;;5081917;28;20298;-66
2022/01/22 12:32:32;;;;;;;3.35;3.05;;;6.80;99.90;;;;;;5086844;28;20245;-66
2022/01/22 12:35:09;;;;;;;2.83;2.63;;;6.80;99.90;;;;;;5088025;28;20234;-66
2022/01/22 12:37:48;;;;;;;2.70;2.50;;;6.80;99.90;;;;;;5087849;28;20246;-66
2022/01/22 12:40:34;;;;;;;2.72;2.42;;;6.80;99.90;;;;;;5087684;28;20654;-66
2022/01/22 12:43:11;;;;;;;2.40;2.30;;;6.80;99.90;;;;;;5087389;28;20221;-66
2022/01/22 12:45:42;;;;;;;2.30;2.10;;;6.80;99.90;;;;;;5081887;28;20261;-66
2022/01/22 12:48:14;;;;;;;2.60;2.40;;;6.90;99.90;;;;;;5087540;28;20215;-67
2022/01/22 12:50:43;;;;;;;3.80;3.50;;;7.00;99.90;;;;;;5087300;28;20238;-66
2022/01/22 12:53:16;;;;;;;2.90;2.70;;;6.90;99.90;;;;;;5086513;28;20294;-66
2022/01/22 12:56:02;;;;;;;3.03;2.72;;;6.90;99.90;;;;;;5080554;28;20234;-66
2022/01/22 12:58:32;;;;;;;2.97;2.78;;;6.90;99.90;;;;;;5073720;28;20321;-66
2022/01/22 13:01:27;;;;;;;3.50;3.25;;;7.00;99.90;;;;;;5073893;28;20231;-66
2022/01/22 13:03:57;;;;;;;2.70;2.50;;;7.00;99.90;;;;;;5059933;28;20584;-66
2022/01/22 13:06:37;;;;;;;3.28;2.95;;;6.90;99.90;;;;;;5073703;28;20213;-66
2022/01/22 13:09:06;;;;;;;3.17;2.88;;;6.90;99.90;;;;;;5073741;28;20257;-66
2022/01/22 13:11:43;;;;;;;3.85;3.60;;;7.00;99.90;;;;;;5073537;28;21062;-66
2022/01/22 13:14:12;;;;;;;3.10;2.90;;;7.00;99.90;;;;;;5073464;28;20233;-66
2022/01/22 13:16:48;;;;;;;3.92;3.63;;;7.10;99.90;;;;;;5073537;28;20250;-66
2022/01/22 13:19:16;;;;;;;3.60;3.40;;;7.00;99.90;;;;;;5067591;28;20317;-66
2022/01/22 13:21:55;;;;;;;3.45;3.15;;;6.90;99.90;;;;;;5072499;28;20207;-66
2022/01/22 13:24:25;;;;;;;4.07;3.70;;;6.90;99.90;;;;;;5069263;28;20306;-66
2022/01/22 13:26:57;;;;;;;3.03;2.83;;;7.00;99.90;;;;;;5073342;28;20257;-66
2022/01/22 13:29:27;;;;;;;5.30;3.90;;;7.00;99.90;;;;;;5073152;28;20246;-66
2022/01/22 13:32:15;;;;;;;4.40;4.00;;;7.00;99.90;;;;;;5073303;28;20703;-66
2022/01/22 13:35:13;;;;;;;6.35;4.13;;;7.10;99.90;;;;;;5073136;28;20598;-66
2022/01/22 13:49:39;;;;;;;3.17;2.88;;;7.20;99.90;;;;;;5082237;28;20218;-66
2022/01/22 13:52:10;;;;;;;4.15;3.20;;;7.20;99.90;;;;;;5103825;22;20267;-63
2022/01/22 13:54:40;;;;;;;3.88;3.58;;;7.20;99.90;;;;;;5067391;28;20242;-64
2022/01/22 13:57:11;;;;;;;3.10;2.90;;;7.20;99.90;;;;;;5065421;28;20261;-63
2022/01/22 13:59:41;;;;;;;3.00;2.80;;;7.20;99.90;;;;;;5067730;28;20254;-63
2022/01/22 14:02:16;;;;;;;3.00;2.80;;;7.20;99.90;;;;;;5068126;28;20258;-64
2022/01/22 14:04:47;;;;;;;3.40;3.15;;;7.20;99.90;;;;;;5068103;28;20211;-64
2022/01/22 14:07:27;;;;;;;3.53;3.22;;;7.20;99.90;;;;;;5067869;28;20290;-63
2022/01/22 14:10:02;;;;;;;3.30;3.00;;;7.20;99.90;;;;;;5067788;28;20203;-63
2022/01/22 14:12:38;;;;;;;3.67;3.38;;;7.30;99.90;;;;;;5067661;28;20305;-63
2022/01/22 14:15:12;;;;;;;2.70;2.50;;;7.30;99.90;;;;;;5067931;28;20206;-63
2022/01/22 14:17:58;;;;;;;2.80;2.60;;;7.30;99.90;;;;;;5067734;28;20265;-63
2022/01/22 14:20:28;;;;;;;3.40;3.10;;;7.40;99.90;;;;;;5067272;28;20718;-62
2022/01/22 14:23:01;;;;;;;3.20;2.67;;;7.40;99.90;;;;;;5067449;28;20251;-63
2022/01/22 14:25:30;;;;;;;2.65;2.45;;;7.40;99.90;;;;;;5066131;28;20679;-63
2022/01/22 14:28:02;;;;;;;3.88;3.10;;;7.50;99.90;;;;;;5067374;28;20222;-63
2022/01/22 14:30:32;;;;;;;3.55;3.15;;;7.50;99.90;;;;;;5066677;28;20208;-63
2022/01/22 14:33:00;;;;;;;2.30;2.20;;;7.40;99.90;;;;;;5067283;28;20298;-63
2022/01/22 14:35:28;;;;;;;3.28;3.03;;;7.30;99.90;;;;;;5067187;28;20203;-63
2022/01/22 14:37:59;;;;;;;3.45;2.90;;;7.30;99.90;;;;;;5067295;28;20199;-63
2022/01/22 14:46:02;;;;;;;2.72;2.50;;;7.20;99.90;;;;;;5067157;28;20249;-63
2022/01/22 14:48:30;;;;;;;2.60;2.40;;;7.10;99.90;;;;;;5066954;28;20199;-64
2022/01/22 14:50:58;;;;;;;3.50;2.90;;;7.20;99.90;;;;;;5061093;28;20278;-63
2022/01/22 14:53:26;;;;;;;2.80;2.60;;;7.20;99.90;;;;;;5052990;28;20266;-63
2022/01/22 14:55:58;;;;;;;7.10;6.40;;;7.20;99.90;;;;;;5053562;28;20235;-64
2022/01/22 14:58:27;;;;;;;3.88;3.55;;;7.30;99.90;;;;;;5053902;28;20231;-64
2022/01/22 15:00:55;;;;;;;2.85;2.65;;;7.20;99.90;;;;;;5047305;28;20884;-64